Terminal Aerodrome Forecast
Issued by NWS

Home | Current Version | Previous Version | Text Only | Print | Product List | Glossary On
Versions: 1 2 3 4 5 6 7 8 9 10 11 12 13 14 15 16 17 18 19 20 21 22 23 24 25 26 27 28 29 30 31 32 33 34 35 36 37 38
000
FTUS44 KHGX 240529
TAFUTS
TAF
KUTS 240529Z 2406/2506 06003KT P6SM SKC
     FM240700 00000KT 5SM BR SKC
      TEMPO 2409/2413 1SM BR BKN004
     FM241500 13004KT P6SM BKN015
     FM241630 09005KT P6SM SCT035
     FM242000 10006KT P6SM VCSH SCT040
     FM250100 13005KT P6SM FEW050 SCT250
      AMD NOT SKED=

USA.gov is the U.S. government's official web portal to all federal, state and local government web resources and services.